首页
METAR-TAF:

METAR-TAF

机场 :

山胡桃, 北卡罗来纳州, 美国

纬度: 35-44-32N, 经度: 081-22-56W, 海拔: 362米

当前天气观测

该预报发布于56分钟前的18:53 UTC
静风
温度 25°C
湿度 79%
气压 1023 hPa
能見度: 16.1公里
少量云层高于2100英尺
阴天层高于4000英尺

METAR: KHKY 251853Z 00000KT 10SM FEW021 OVC040 25/21 A3021 RMK AO2 SLP210 T02500206

时间: 15:49 (19:49 UTC)

预报

该预报发布于2小时和6分钟前的17:43 UTC
预报有效从25日的 18点(UTC)到 26日的 18点(UTC)
风速2节,风向多变
能見度: 10公里
阴天层高于1500英尺
从 25日的 2000点(UTC)
风速3节,风向南转南东
能見度: 10公里
多云层高于2500英尺
从 26日的 0900点(UTC)
风速2节,风向多变
能見度: 8.0公里
多云层高于1400英尺
轻雾
从 26日的 1500点(UTC)
风速5节,风向西南
能見度: 10公里
多云层高于4000英尺
几率 30%
从 26日的 15点(UTC)到 26日的 18点(UTC)
能見度: 6.4公里
阴天层高于2500英尺, 积雨云.
雷暴, 雨, 轻雾

TAF: KHKY 251743Z 2518/2618 VRB02KT P6SM OVC015 FM252000 15003KT P6SM BKN025 FM260900 VRB02KT 5SM BR BKN014 FM261500 22005KT P6SM BKN040 PROB30 2615/2618 4SM TSRA BR OVC025CB

超过4000个机场的气象观测和天气预报(METAR&TAF报告)。

可查询的气象台以黄色和红色小点在地图上表示。

将鼠标移到小点上方,可查看气象台名称。

然后点击查看天气观测和预报。

如需切换地图:点击带黑十字的绿色按钮放大地图;点击带横线的绿色按钮缩小地图;或者点击绿色箭头查看邻近地区的地图。


METAR-TAF: